sensor_id;sensor_type;location;lat;lon;timestamp;pressure;altitude;pressure_sealevel;temperature;humidity
41222;BME280;26952;42.884;23.918;2023-05-01T00:01:33;95764.88;;;9.15;100.00
41222;BME280;26952;42.884;23.918;2023-05-01T00:03:58;95782.66;;;9.29;100.00
41222;BME280;26952;42.884;23.918;2023-05-01T00:06:24;95800.81;;;9.40;100.00
41222;BME280;26952;42.884;23.918;2023-05-01T00:08:49;95796.53;;;9.39;100.00
41222;BME280;26952;42.884;23.918;2023-05-01T00:11:15;95796.88;;;9.36;100.00
41222;BME280;26952;42.884;23.918;2023-05-01T00:13:40;95817.50;;;9.49;100.00
41222;BME280;26952;42.884;23.918;2023-05-01T00:16:10;95791.25;;;9.31;100.00
41222;BME280;26952;42.884;23.918;2023-05-01T00:18:36;95818.66;;;9.38;100.00
41222;BME280;26952;42.884;23.918;2023-05-01T00:21:01;95811.38;;;9.32;100.00
41222;BME280;26952;42.884;23.918;2023-05-01T00:23:27;95793.56;;;9.26;100.00
41222;BME280;26952;42.884;23.918;2023-05-01T00:25:52;95820.97;;;9.41;100.00
41222;BME280;26952;42.884;23.918;2023-05-01T00:28:18;95781.72;;;9.22;100.00
41222;BME280;26952;42.884;23.918;2023-05-01T00:30:43;95814.03;;;9.40;100.00
41222;BME280;26952;42.884;23.918;2023-05-01T00:33:10;95805.47;;;9.22;100.00
41222;BME280;26952;42.884;23.918;2023-05-01T00:35:35;95798.53;;;9.21;100.00
41222;BME280;26952;42.884;23.918;2023-05-01T00:38:01;95821.47;;;9.45;100.00
41222;BME280;26952;42.884;23.918;2023-05-01T00:40:26;95810.41;;;9.33;100.00
41222;BME280;26952;42.884;23.918;2023-05-01T00:42:52;95782.16;;;9.26;100.00
41222;BME280;26952;42.884;23.918;2023-05-01T00:45:17;95831.53;;;9.41;100.00
41222;BME280;26952;42.884;23.918;2023-05-01T00:47:43;95813.41;;;9.22;100.00
41222;BME280;26952;42.884;23.918;2023-05-01T00:50:08;95822.28;;;9.29;100.00
41222;BME280;26952;42.884;23.918;2023-05-01T00:52:35;95813.06;;;9.09;100.00
41222;BME280;26952;42.884;23.918;2023-05-01T00:55:00;95831.88;;;9.22;100.00
41222;BME280;26952;42.884;23.918;2023-05-01T00:57:26;95832.34;;;9.26;100.00
41222;BME280;26952;42.884;23.918;2023-05-01T00:59:51;95824.59;;;9.24;100.00
41222;BME280;26952;42.884;23.918;2023-05-01T01:02:16;95819.66;;;9.13;100.00
41222;BME280;26952;42.884;23.918;2023-05-01T01:04:45;95828.56;;;9.12;100.00
41222;BME280;26952;42.884;23.918;2023-05-01T01:07:21;95848.03;;;9.19;100.00
41222;BME280;26952;42.884;23.918;2023-05-01T01:12:41;95847.22;;;9.11;100.00
41222;BME280;26952;42.884;23.918;2023-05-01T01:15:32;95842.09;;;9.09;100.00
41222;BME280;26952;42.884;23.918;2023-05-01T01:18:11;95854.31;;;9.10;100.00
41222;BME280;26952;42.884;23.918;2023-05-01T01:21:11;95828.72;;;8.95;100.00
41222;BME280;26952;42.884;23.918;2023-05-01T01:24:25;95839.44;;;9.01;100.00
41222;BME280;26952;42.884;23.918;2023-05-01T01:29:55;95841.44;;;8.99;100.00
41222;BME280;26952;42.884;23.918;2023-05-01T01:35:17;95851.00;;;9.08;100.00
41222;BME280;26952;42.884;23.918;2023-05-01T01:37:49;95841.44;;;9.07;100.00
41222;BME280;26952;42.884;23.918;2023-05-01T01:40:19;95823.09;;;8.98;100.00
41222;BME280;26952;42.884;23.918;2023-05-01T01:42:50;95849.34;;;9.07;100.00
41222;BME280;26952;42.884;23.918;2023-05-01T01:45:24;95847.69;;;9.06;100.00
41222;BME280;26952;42.884;23.918;2023-05-01T01:47:53;95841.09;;;8.94;100.00
41222;BME280;26952;42.884;23.918;2023-05-01T01:50:21;95829.34;;;8.89;100.00
41222;BME280;26952;42.884;23.918;2023-05-01T01:52:49;95823.56;;;8.85;100.00
41222;BME280;26952;42.884;23.918;2023-05-01T01:55:16;95843.56;;;8.96;100.00
41222;BME280;26952;42.884;23.918;2023-05-01T01:57:46;95825.75;;;8.90;100.00
41222;BME280;26952;42.884;23.918;2023-05-01T02:00:13;95828.38;;;8.98;100.00
41222;BME280;26952;42.884;23.918;2023-05-01T02:02:41;95827.88;;;8.94;100.00
41222;BME280;26952;42.884;23.918;2023-05-01T02:05:10;95829.84;;;8.92;100.00
41222;BME280;26952;42.884;23.918;2023-05-01T02:07:39;95829.69;;;8.86;100.00
41222;BME280;26952;42.884;23.918;2023-05-01T02:10:07;95836.47;;;8.96;100.00
41222;BME280;26952;42.884;23.918;2023-05-01T02:12:34;95820.28;;;8.83;100.00
41222;BME280;26952;42.884;23.918;2023-05-01T02:15:01;95826.22;;;8.93;100.00
41222;BME280;26952;42.884;23.918;2023-05-01T02:17:28;95811.03;;;8.79;100.00
41222;BME280;26952;42.884;23.918;2023-05-01T02:19:56;95823.44;;;8.95;100.00
41222;BME280;26952;42.884;23.918;2023-05-01T02:22:22;95814.03;;;9.00;100.00
41222;BME280;26952;42.884;23.918;2023-05-01T02:24:50;95814.69;;;9.02;100.00
41222;BME280;26952;42.884;23.918;2023-05-01T02:27:23;95813.06;;;9.01;100.00
41222;BME280;26952;42.884;23.918;2023-05-01T02:29:51;95824.94;;;9.05;100.00
41222;BME280;26952;42.884;23.918;2023-05-01T02:32:18;95803.63;;;8.83;100.00
41222;BME280;26952;42.884;23.918;2023-05-01T02:34:44;95805.59;;;8.89;100.00
41222;BME280;26952;42.884;23.918;2023-05-01T02:37:10;95824.25;;;8.95;100.00
41222;BME280;26952;42.884;23.918;2023-05-01T02:39:36;95789.25;;;8.77;100.00
41222;BME280;26952;42.884;23.918;2023-05-01T02:42:02;95818.78;;;8.89;100.00
41222;BME280;26952;42.884;23.918;2023-05-01T02:44:38;95803.78;;;8.73;100.00
41222;BME280;26952;42.884;23.918;2023-05-01T02:47:06;95791.53;;;8.72;100.00
41222;BME280;26952;42.884;23.918;2023-05-01T02:49:34;95800.16;;;8.82;100.00
41222;BME280;26952;42.884;23.918;2023-05-01T02:51:59;95824.06;;;8.89;100.00
41222;BME280;26952;42.884;23.918;2023-05-01T02:54:26;95800.09;;;8.58;100.00
41222;BME280;26952;42.884;23.918;2023-05-01T02:56:51;95816.94;;;8.65;100.00
41222;BME280;26952;42.884;23.918;2023-05-01T02:59:17;95838.00;;;8.49;100.00
41222;BME280;26952;42.884;23.918;2023-05-01T03:01:43;95846.56;;;8.51;100.00
41222;BME280;26952;42.884;23.918;2023-05-01T03:04:08;95838.63;;;8.43;100.00
41222;BME280;26952;42.884;23.918;2023-05-01T03:06:34;95859.63;;;8.53;100.00
41222;BME280;26952;42.884;23.918;2023-05-01T03:08:59;95823.78;;;8.34;100.00
41222;BME280;26952;42.884;23.918;2023-05-01T03:11:25;95840.31;;;8.44;100.00
41222;BME280;26952;42.884;23.918;2023-05-01T03:13:51;95864.75;;;8.54;100.00
41222;BME280;26952;42.884;23.918;2023-05-01T03:16:16;95850.47;;;8.31;100.00
41222;BME280;26952;42.884;23.918;2023-05-01T03:18:41;95833.91;;;8.21;100.00
41222;BME280;26952;42.884;23.918;2023-05-01T03:21:07;95864.91;;;8.53;100.00
41222;BME280;26952;42.884;23.918;2023-05-01T03:23:32;95840.13;;;8.46;100.00
41222;BME280;26952;42.884;23.918;2023-05-01T03:25:58;95860.59;;;8.52;100.00
41222;BME280;26952;42.884;23.918;2023-05-01T03:28:23;95826.56;;;8.32;100.00
41222;BME280;26952;42.884;23.918;2023-05-01T03:30:49;95877.16;;;8.70;100.00
41222;BME280;26952;42.884;23.918;2023-05-01T03:33:16;95842.44;;;8.49;100.00
41222;BME280;26952;42.884;23.918;2023-05-01T03:35:41;95843.16;;;8.59;100.00
41222;BME280;26952;42.884;23.918;2023-05-01T03:38:07;95860.47;;;8.61;100.00
41222;BME280;26952;42.884;23.918;2023-05-01T03:40:32;95856.50;;;8.57;100.00
41222;BME280;26952;42.884;23.918;2023-05-01T03:42:58;95854.41;;;8.69;100.00
41222;BME280;26952;42.884;23.918;2023-05-01T03:45:23;95879.50;;;8.97;100.00
41222;BME280;26952;42.884;23.918;2023-05-01T03:47:49;95862.84;;;8.88;100.00
41222;BME280;26952;42.884;23.918;2023-05-01T03:50:15;95858.38;;;8.89;100.00
41222;BME280;26952;42.884;23.918;2023-05-01T03:52:40;95876.41;;;9.01;100.00
41222;BME280;26952;42.884;23.918;2023-05-01T03:55:07;95838.06;;;8.65;100.00
41222;BME280;26952;42.884;23.918;2023-05-01T03:57:33;95865.75;;;8.69;100.00
41222;BME280;26952;42.884;23.918;2023-05-01T03:59:58;95859.38;;;8.88;100.00
41222;BME280;26952;42.884;23.918;2023-05-01T04:02:24;95880.38;;;9.13;100.00
41222;BME280;26952;42.884;23.918;2023-05-01T04:04:49;95864.19;;;9.16;100.00
41222;BME280;26952;42.884;23.918;2023-05-01T04:07:15;95876.13;;;9.36;100.00
41222;BME280;26952;42.884;23.918;2023-05-01T04:09:40;95875.63;;;9.41;100.00
41222;BME280;26952;42.884;23.918;2023-05-01T04:12:06;95897.25;;;9.68;100.00
41222;BME280;26952;42.884;23.918;2023-05-01T04:14:31;95889.16;;;9.70;100.00
41222;BME280;26952;42.884;23.918;2023-05-01T04:16:57;95884.53;;;9.80;100.00
41222;BME280;26952;42.884;23.918;2023-05-01T04:19:22;95890.63;;;9.97;100.00
41222;BME280;26952;42.884;23.918;2023-05-01T04:21:47;95867.81;;;9.96;100.00
41222;BME280;26952;42.884;23.918;2023-05-01T04:24:13;95887.97;;;10.05;100.00
41222;BME280;26952;42.884;23.918;2023-05-01T04:26:38;95902.16;;;10.20;100.00
41222;BME280;26952;42.884;23.918;2023-05-01T04:29:04;95891.13;;;10.16;100.00
41222;BME280;26952;42.884;23.918;2023-05-01T04:31:29;95898.34;;;10.30;100.00
41222;BME280;26952;42.884;23.918;2023-05-01T04:33:55;95924.25;;;10.43;100.00
41222;BME280;26952;42.884;23.918;2023-05-01T04:36:20;95919.13;;;10.49;100.00
41222;BME280;26952;42.884;23.918;2023-05-01T04:38:46;95891.16;;;10.55;100.00
41222;BME280;26952;42.884;23.918;2023-05-01T04:41:12;95901.97;;;10.76;100.00
41222;BME280;26952;42.884;23.918;2023-05-01T04:43:37;95881.44;;;10.86;100.00
41222;BME280;26952;42.884;23.918;2023-05-01T04:46:03;95901.16;;;11.06;100.00
41222;BME280;26952;42.884;23.918;2023-05-01T04:48:28;95911.34;;;11.17;100.00
41222;BME280;26952;42.884;23.918;2023-05-01T04:50:54;95883.22;;;11.16;100.00
41222;BME280;26952;42.884;23.918;2023-05-01T04:53:19;95898.47;;;11.37;100.00
41222;BME280;26952;42.884;23.918;2023-05-01T04:55:45;95901.25;;;11.43;100.00
41222;BME280;26952;42.884;23.918;2023-05-01T04:58:11;95915.38;;;11.66;100.00
41222;BME280;26952;42.884;23.918;2023-05-01T05:00:36;95901.75;;;11.69;100.00
41222;BME280;26952;42.884;23.918;2023-05-01T05:03:02;95912.66;;;11.21;100.00
41222;BME280;26952;42.884;23.918;2023-05-01T05:05:27;95918.44;;;10.63;100.00
41222;BME280;26952;42.884;23.918;2023-05-01T05:07:53;95910.06;;;10.44;100.00
41222;BME280;26952;42.884;23.918;2023-05-01T05:10:18;95911.28;;;10.64;100.00
41222;BME280;26952;42.884;23.918;2023-05-01T05:12:43;95924.66;;;11.09;100.00
41222;BME280;26952;42.884;23.918;2023-05-01T05:15:09;95928.63;;;11.13;100.00
41222;BME280;26952;42.884;23.918;2023-05-01T05:17:35;95953.84;;;11.54;100.00
41222;BME280;26952;42.884;23.918;2023-05-01T05:20:00;95946.81;;;11.69;100.00
41222;BME280;26952;42.884;23.918;2023-05-01T05:22:26;95948.63;;;11.77;100.00
41222;BME280;26952;42.884;23.918;2023-05-01T05:24:52;95957.06;;;11.95;100.00
41222;BME280;26952;42.884;23.918;2023-05-01T05:27:19;95963.06;;;12.11;100.00
41222;BME280;26952;42.884;23.918;2023-05-01T05:29:45;95959.97;;;12.22;100.00
41222;BME280;26952;42.884;23.918;2023-05-01T05:32:10;95964.94;;;12.25;100.00
41222;BME280;26952;42.884;23.918;2023-05-01T05:34:36;95981.56;;;12.19;100.00
41222;BME280;26952;42.884;23.918;2023-05-01T05:37:02;95979.22;;;12.24;100.00
41222;BME280;26952;42.884;23.918;2023-05-01T05:39:27;95982.34;;;12.42;100.00
41222;BME280;26952;42.884;23.918;2023-05-01T05:41:53;95975.13;;;12.36;100.00
41222;BME280;26952;42.884;23.918;2023-05-01T05:44:18;95941.16;;;12.32;100.00
41222;BME280;26952;42.884;23.918;2023-05-01T05:46:44;95988.44;;;12.66;100.00
41222;BME280;26952;42.884;23.918;2023-05-01T05:49:10;95973.94;;;12.53;100.00
41222;BME280;26952;42.884;23.918;2023-05-01T05:51:35;95966.91;;;12.46;100.00
41222;BME280;26952;42.884;23.918;2023-05-01T05:54:01;95971.44;;;12.37;100.00
41222;BME280;26952;42.884;23.918;2023-05-01T05:56:26;95965.41;;;12.43;100.00
41222;BME280;26952;42.884;23.918;2023-05-01T05:58:54;95978.47;;;12.30;100.00
41222;BME280;26952;42.884;23.918;2023-05-01T06:01:20;95980.19;;;11.86;100.00
41222;BME280;26952;42.884;23.918;2023-05-01T06:03:45;95985.38;;;12.02;100.00
41222;BME280;26952;42.884;23.918;2023-05-01T06:06:10;95977.34;;;12.10;100.00
41222;BME280;26952;42.884;23.918;2023-05-01T06:08:36;95972.75;;;12.41;100.00
41222;BME280;26952;42.884;23.918;2023-05-01T06:11:01;95985.88;;;12.72;100.00
41222;BME280;26952;42.884;23.918;2023-05-01T06:13:27;95989.03;;;13.05;100.00
41222;BME280;26952;42.884;23.918;2023-05-01T06:15:52;95985.16;;;13.07;100.00
41222;BME280;26952;42.884;23.918;2023-05-01T06:18:18;95989.84;;;13.55;100.00
41222;BME280;26952;42.884;23.918;2023-05-01T06:20:43;95996.69;;;14.00;100.00
41222;BME280;26952;42.884;23.918;2023-05-01T06:23:09;96007.47;;;14.13;100.00
41222;BME280;26952;42.884;23.918;2023-05-01T06:25:34;95977.81;;;13.95;100.00
41222;BME280;26952;42.884;23.918;2023-05-01T06:28:01;95966.31;;;14.37;100.00
41222;BME280;26952;42.884;23.918;2023-05-01T06:30:28;95987.50;;;15.06;100.00
41222;BME280;26952;42.884;23.918;2023-05-01T06:32:53;95985.78;;;15.74;100.00
41222;BME280;26952;42.884;23.918;2023-05-01T06:35:18;95979.25;;;15.96;100.00
41222;BME280;26952;42.884;23.918;2023-05-01T06:37:45;95981.59;;;16.51;100.00
41222;BME280;26952;42.884;23.918;2023-05-01T06:40:10;95986.50;;;17.00;100.00
41222;BME280;26952;42.884;23.918;2023-05-01T06:42:37;95996.69;;;17.42;96.55
41222;BME280;26952;42.884;23.918;2023-05-01T06:45:03;95981.78;;;17.65;96.00
41222;BME280;26952;42.884;23.918;2023-05-01T06:47:29;95990.28;;;17.93;85.56
41222;BME280;26952;42.884;23.918;2023-05-01T06:49:54;95987.69;;;18.18;88.78
41222;BME280;26952;42.884;23.918;2023-05-01T06:52:20;96008.50;;;18.78;85.93
41222;BME280;26952;42.884;23.918;2023-05-01T06:54:45;95982.25;;;18.62;85.78
41222;BME280;26952;42.884;23.918;2023-05-01T06:57:10;95983.44;;;18.66;75.54
41222;BME280;26952;42.884;23.918;2023-05-01T06:59:36;96016.31;;;19.04;69.20
41222;BME280;26952;42.884;23.918;2023-05-01T07:02:01;96008.34;;;18.98;62.78
41222;BME280;26952;42.884;23.918;2023-05-01T07:04:26;95974.59;;;19.26;65.22
41222;BME280;26952;42.884;23.918;2023-05-01T07:06:52;95989.16;;;19.73;73.71
41222;BME280;26952;42.884;23.918;2023-05-01T07:09:17;96010.63;;;19.73;60.16
41222;BME280;26952;42.884;23.918;2023-05-01T07:11:43;96009.69;;;19.50;62.32
41222;BME280;26952;42.884;23.918;2023-05-01T07:14:09;96022.50;;;18.56;69.30
41222;BME280;26952;42.884;23.918;2023-05-01T07:16:34;96017.78;;;18.20;64.71
41222;BME280;26952;42.884;23.918;2023-05-01T07:18:59;96022.34;;;18.13;75.39
41222;BME280;26952;42.884;23.918;2023-05-01T07:21:25;95977.56;;;17.89;68.27
41222;BME280;26952;42.884;23.918;2023-05-01T07:23:50;96041.41;;;18.30;71.40
41222;BME280;26952;42.884;23.918;2023-05-01T07:26:16;96019.56;;;18.64;71.71
41222;BME280;26952;42.884;23.918;2023-05-01T07:28:41;96037.72;;;19.36;73.78
41222;BME280;26952;42.884;23.918;2023-05-01T07:31:09;96024.72;;;18.90;60.89
41222;BME280;26952;42.884;23.918;2023-05-01T07:33:35;96018.81;;;19.24;64.38
41222;BME280;26952;42.884;23.918;2023-05-01T07:36:00;96026.97;;;19.90;70.01
41222;BME280;26952;42.884;23.918;2023-05-01T07:38:27;96010.44;;;20.22;60.39
41222;BME280;26952;42.884;23.918;2023-05-01T07:40:52;96024.94;;;21.04;68.00
41222;BME280;26952;42.884;23.918;2023-05-01T07:43:18;96036.88;;;21.31;57.06
41222;BME280;26952;42.884;23.918;2023-05-01T07:45:53;95994.09;;;20.88;55.29
41222;BME280;26952;42.884;23.918;2023-05-01T07:48:20;96015.75;;;20.93;53.87
41222;BME280;26952;42.884;23.918;2023-05-01T07:50:45;96025.75;;;21.39;56.68
41222;BME280;26952;42.884;23.918;2023-05-01T07:53:10;96032.75;;;21.63;67.00
41222;BME280;26952;42.884;23.918;2023-05-01T07:55:36;96034.88;;;21.03;54.79
41222;BME280;26952;42.884;23.918;2023-05-01T07:58:02;96037.16;;;20.88;53.50
41222;BME280;26952;42.884;23.918;2023-05-01T08:00:28;96041.22;;;21.20;64.87
41222;BME280;26952;42.884;23.918;2023-05-01T08:02:53;96029.66;;;20.79;55.88
41222;BME280;26952;42.884;23.918;2023-05-01T08:05:19;96010.38;;;20.40;63.93
41222;BME280;26952;42.884;23.918;2023-05-01T08:07:44;96030.88;;;19.58;58.93
41222;BME280;26952;42.884;23.918;2023-05-01T08:10:10;96032.72;;;19.14;62.90
41222;BME280;26952;42.884;23.918;2023-05-01T08:12:35;96030.94;;;18.84;65.50
41222;BME280;26952;42.884;23.918;2023-05-01T08:15:00;96038.72;;;18.67;60.08
41222;BME280;26952;42.884;23.918;2023-05-01T08:17:26;95981.47;;;19.22;55.76
41222;BME280;26952;42.884;23.918;2023-05-01T08:19:51;96035.13;;;18.80;57.60
41222;BME280;26952;42.884;23.918;2023-05-01T08:22:20;96034.94;;;18.75;60.83
41222;BME280;26952;42.884;23.918;2023-05-01T08:24:46;96040.53;;;19.22;58.38
41222;BME280;26952;42.884;23.918;2023-05-01T08:27:11;96041.38;;;19.41;60.49
41222;BME280;26952;42.884;23.918;2023-05-01T08:29:36;95982.34;;;20.18;65.87
41222;BME280;26952;42.884;23.918;2023-05-01T08:32:02;96047.78;;;20.12;56.51
41222;BME280;26952;42.884;23.918;2023-05-01T08:34:27;96038.50;;;20.56;58.02
41222;BME280;26952;42.884;23.918;2023-05-01T08:36:53;96040.75;;;21.12;54.51
41222;BME280;26952;42.884;23.918;2023-05-01T08:39:18;96032.88;;;21.45;54.87
41222;BME280;26952;42.884;23.918;2023-05-01T08:41:47;96023.47;;;20.90;51.30
41222;BME280;26952;42.884;23.918;2023-05-01T08:44:15;96035.44;;;21.40;52.42
41222;BME280;26952;42.884;23.918;2023-05-01T08:47:09;96047.72;;;21.93;53.19
41222;BME280;26952;42.884;23.918;2023-05-01T08:49:36;96028.91;;;21.47;47.11
41222;BME280;26952;42.884;23.918;2023-05-01T08:52:05;96028.66;;;21.83;49.50
41222;BME280;26952;42.884;23.918;2023-05-01T08:54:30;96021.59;;;21.94;51.27
41222;BME280;26952;42.884;23.918;2023-05-01T08:57:00;96021.78;;;21.07;50.79
41222;BME280;26952;42.884;23.918;2023-05-01T08:59:33;96011.69;;;21.48;48.65
41222;BME280;26952;42.884;23.918;2023-05-01T09:02:00;96015.31;;;21.08;49.61
41222;BME280;26952;42.884;23.918;2023-05-01T09:04:30;96026.94;;;21.31;50.57
41222;BME280;26952;42.884;23.918;2023-05-01T09:06:57;96010.59;;;21.61;50.61
41222;BME280;26952;42.884;23.918;2023-05-01T09:09:25;96019.19;;;22.09;48.33
41222;BME280;26952;42.884;23.918;2023-05-01T09:11:52;96015.66;;;22.09;49.38
41222;BME280;26952;42.884;23.918;2023-05-01T09:14:19;96006.53;;;21.35;52.18
41222;BME280;26952;42.884;23.918;2023-05-01T09:16:45;96002.03;;;20.60;52.70
41222;BME280;26952;42.884;23.918;2023-05-01T09:19:10;96007.50;;;20.53;55.01
41222;BME280;26952;42.884;23.918;2023-05-01T09:21:36;96013.44;;;20.97;51.78
41222;BME280;26952;42.884;23.918;2023-05-01T09:24:01;96002.69;;;20.97;48.79
41222;BME280;26952;42.884;23.918;2023-05-01T09:26:27;96004.66;;;21.47;49.49
41222;BME280;26952;42.884;23.918;2023-05-01T09:28:52;96004.47;;;22.28;48.92
41222;BME280;26952;42.884;23.918;2023-05-01T09:31:29;96004.72;;;22.88;48.15
41222;BME280;26952;42.884;23.918;2023-05-01T09:34:01;96012.94;;;23.26;46.74
41222;BME280;26952;42.884;23.918;2023-05-01T09:36:29;96004.31;;;23.12;45.86
41222;BME280;26952;42.884;23.918;2023-05-01T09:38:56;96001.59;;;21.67;47.47
41222;BME280;26952;42.884;23.918;2023-05-01T09:41:22;95999.94;;;22.17;50.69
41222;BME280;26952;42.884;23.918;2023-05-01T09:43:49;96007.63;;;22.25;47.67
41222;BME280;26952;42.884;23.918;2023-05-01T09:46:15;96004.72;;;21.87;48.97
41222;BME280;26952;42.884;23.918;2023-05-01T09:49:00;96004.78;;;21.18;47.71
41222;BME280;26952;42.884;23.918;2023-05-01T09:51:31;96001.38;;;21.11;49.17
41222;BME280;26952;42.884;23.918;2023-05-01T09:54:01;96007.66;;;20.82;49.44
41222;BME280;26952;42.884;23.918;2023-05-01T09:56:30;95996.81;;;21.57;48.17
41222;BME280;26952;42.884;23.918;2023-05-01T09:58:57;95994.50;;;22.73;49.54
41222;BME280;26952;42.884;23.918;2023-05-01T10:01:40;96000.09;;;23.55;42.77
41222;BME280;26952;42.884;23.918;2023-05-01T10:04:07;95988.84;;;23.24;45.22
41222;BME280;26952;42.884;23.918;2023-05-01T10:06:34;95993.63;;;23.56;44.16
41222;BME280;26952;42.884;23.918;2023-05-01T10:09:01;95980.66;;;23.19;43.28
41222;BME280;26952;42.884;23.918;2023-05-01T10:11:27;95982.88;;;22.00;47.17
41222;BME280;26952;42.884;23.918;2023-05-01T10:14:06;95980.50;;;21.64;47.29
41222;BME280;26952;42.884;23.918;2023-05-01T10:16:33;95997.28;;;21.54;48.40
41222;BME280;26952;42.884;23.918;2023-05-01T10:18:58;95995.41;;;22.06;46.07
41222;BME280;26952;42.884;23.918;2023-05-01T10:21:24;95995.00;;;21.86;44.00
41222;BME280;26952;42.884;23.918;2023-05-01T10:23:51;95984.00;;;21.76;46.57
41222;BME280;26952;42.884;23.918;2023-05-01T10:26:17;95980.00;;;21.90;48.18
41222;BME280;26952;42.884;23.918;2023-05-01T10:28:45;95977.47;;;22.00;45.04
41222;BME280;26952;42.884;23.918;2023-05-01T10:31:12;95984.09;;;22.37;44.86
41222;BME280;26952;42.884;23.918;2023-05-01T10:33:38;95970.03;;;22.63;45.76
41222;BME280;26952;42.884;23.918;2023-05-01T10:36:07;95980.75;;;23.08;42.69
41222;BME280;26952;42.884;23.918;2023-05-01T10:38:37;95983.31;;;23.53;41.89
41222;BME280;26952;42.884;23.918;2023-05-01T10:41:02;95976.25;;;23.68;41.07
41222;BME280;26952;42.884;23.918;2023-05-01T10:43:29;95971.03;;;24.05;38.68
41222;BME280;26952;42.884;23.918;2023-05-01T10:48:53;95979.22;;;22.95;41.69
41222;BME280;26952;42.884;23.918;2023-05-01T10:51:21;95981.00;;;20.92;47.08
41222;BME280;26952;42.884;23.918;2023-05-01T10:53:49;95981.41;;;20.42;49.99
41222;BME280;26952;42.884;23.918;2023-05-01T10:59:03;95982.91;;;19.43;52.76
41222;BME280;26952;42.884;23.918;2023-05-01T11:04:04;95978.56;;;19.24;53.87
41222;BME280;26952;42.884;23.918;2023-05-01T11:06:33;95972.63;;;19.40;53.74
41222;BME280;26952;42.884;23.918;2023-05-01T11:08:59;95991.34;;;19.65;54.28
41222;BME280;26952;42.884;23.918;2023-05-01T11:14:00;95996.19;;;19.74;51.93
41222;BME280;26952;42.884;23.918;2023-05-01T11:19:06;95992.22;;;20.24;51.38
41222;BME280;26952;42.884;23.918;2023-05-01T11:21:34;95986.56;;;20.44;49.79
41222;BME280;26952;42.884;23.918;2023-05-01T11:24:00;95994.06;;;20.77;56.93
41222;BME280;26952;42.884;23.918;2023-05-01T11:26:27;95994.66;;;20.79;48.48
41222;BME280;26952;42.884;23.918;2023-05-01T11:28:54;95983.97;;;21.02;54.52
41222;BME280;26952;42.884;23.918;2023-05-01T11:31:20;96004.19;;;21.16;50.49
41222;BME280;26952;42.884;23.918;2023-05-01T11:33:46;95981.59;;;20.94;49.95
41222;BME280;26952;42.884;23.918;2023-05-01T11:36:11;95982.53;;;20.88;51.43
41222;BME280;26952;42.884;23.918;2023-05-01T11:38:48;95987.94;;;20.99;49.79
41222;BME280;26952;42.884;23.918;2023-05-01T11:41:13;95986.13;;;20.82;50.52
41222;BME280;26952;42.884;23.918;2023-05-01T11:43:53;95998.31;;;20.31;49.37
41222;BME280;26952;42.884;23.918;2023-05-01T11:46:30;96005.56;;;19.83;50.71
41222;BME280;26952;42.884;23.918;2023-05-01T11:48:58;96013.81;;;19.27;52.86
41222;BME280;26952;42.884;23.918;2023-05-01T11:51:24;96026.22;;;18.55;58.46
41222;BME280;26952;42.884;23.918;2023-05-01T11:54:05;96028.78;;;18.37;61.05
41222;BME280;26952;42.884;23.918;2023-05-01T11:56:31;96023.41;;;17.61;69.12
41222;BME280;26952;42.884;23.918;2023-05-01T11:59:00;96038.69;;;17.28;81.78
41222;BME280;26952;42.884;23.918;2023-05-01T12:01:36;96067.56;;;16.81;98.36
41222;BME280;26952;42.884;23.918;2023-05-01T12:04:03;96044.88;;;16.44;100.00
41222;BME280;26952;42.884;23.918;2023-05-01T12:06:39;96013.88;;;15.63;100.00
41222;BME280;26952;42.884;23.918;2023-05-01T12:09:28;96071.38;;;15.66;100.00
41222;BME280;26952;42.884;23.918;2023-05-01T12:11:56;96019.34;;;15.14;100.00
41222;BME280;26952;42.884;23.918;2023-05-01T12:14:23;96062.91;;;15.28;100.00
41222;BME280;26952;42.884;23.918;2023-05-01T12:16:49;96044.25;;;14.94;100.00
41222;BME280;26952;42.884;23.918;2023-05-01T12:19:15;96042.44;;;14.73;100.00
41222;BME280;26952;42.884;23.918;2023-05-01T12:21:41;96035.72;;;14.77;100.00
41222;BME280;26952;42.884;23.918;2023-05-01T12:26:33;96025.59;;;14.66;100.00
41222;BME280;26952;42.884;23.918;2023-05-01T12:29:03;96038.63;;;14.82;100.00
41222;BME280;26952;42.884;23.918;2023-05-01T12:31:29;96040.59;;;14.74;100.00
41222;BME280;26952;42.884;23.918;2023-05-01T12:33:59;96027.00;;;14.41;100.00
41222;BME280;26952;42.884;23.918;2023-05-01T12:36:26;96041.84;;;14.50;100.00
41222;BME280;26952;42.884;23.918;2023-05-01T12:41:40;96038.91;;;14.24;100.00
41222;BME280;26952;42.884;23.918;2023-05-01T12:46:59;96051.34;;;14.59;100.00
41222;BME280;26952;42.884;23.918;2023-05-01T12:49:26;96038.94;;;14.73;100.00
41222;BME280;26952;42.884;23.918;2023-05-01T12:51:54;96043.44;;;15.00;100.00
41222;BME280;26952;42.884;23.918;2023-05-01T12:54:22;96032.75;;;15.27;100.00
41222;BME280;26952;42.884;23.918;2023-05-01T12:56:48;96042.97;;;15.52;100.00
41222;BME280;26952;42.884;23.918;2023-05-01T12:59:25;96034.28;;;15.90;100.00
41222;BME280;26952;42.884;23.918;2023-05-01T13:02:06;95990.16;;;16.01;100.00
41222;BME280;26952;42.884;23.918;2023-05-01T13:04:32;96041.41;;;16.43;100.00
41222;BME280;26952;42.884;23.918;2023-05-01T13:06:58;96040.41;;;16.71;100.00
41222;BME280;26952;42.884;23.918;2023-05-01T13:09:25;96047.81;;;16.88;100.00
41222;BME280;26952;42.884;23.918;2023-05-01T13:14:36;96017.34;;;17.02;100.00
41222;BME280;26952;42.884;23.918;2023-05-01T13:17:02;96050.66;;;17.32;100.00
41222;BME280;26952;42.884;23.918;2023-05-01T13:19:28;96040.38;;;17.29;100.00
41222;BME280;26952;42.884;23.918;2023-05-01T13:21:55;96044.03;;;17.48;100.00